createdAt,value
2022-07-30T00:00:32.359Z,5.1
2022-07-30T00:05:35.039Z,5.3
2022-07-30T00:10:37.505Z,5.1
2022-07-30T00:15:39.916Z,5.8
2022-07-30T00:20:45.293Z,5.6
2022-07-30T00:25:51.195Z,5.6
2022-07-30T00:30:57.105Z,5.4
2022-07-30T00:35:59.697Z,5.6
2022-07-30T00:41:02.044Z,5.5
2022-07-30T00:46:04.515Z,5.3
2022-07-30T00:51:07.819Z,5.7
2022-07-30T00:56:10.242Z,5.4
2022-07-30T01:01:12.649Z,5.6
2022-07-30T01:06:15.537Z,5.3
2022-07-30T01:11:18.195Z,5.1
2022-07-30T01:16:20.750Z,5
2022-07-30T01:21:23.729Z,4.7
2022-07-30T01:26:26.216Z,4.6
2022-07-30T01:31:29.346Z,4.7
2022-07-30T01:36:32.125Z,5.1
2022-07-30T01:41:34.715Z,4.7
2022-07-30T01:46:37.415Z,5
2022-07-30T01:51:39.964Z,5.3
2022-07-30T01:56:42.838Z,5.2
2022-07-30T02:01:46.188Z,4.8
2022-07-30T02:06:48.949Z,4.8
2022-07-30T02:11:53.190Z,4.9
2022-07-30T02:16:55.642Z,4.6
2022-07-30T02:21:58.662Z,4.6
2022-07-30T02:27:03.894Z,4.3
2022-07-30T02:32:06.838Z,4.2
2022-07-30T02:37:09.363Z,4.1
2022-07-30T02:42:12.666Z,4.1
2022-07-30T02:47:15.689Z,3.9
2022-07-30T02:52:18.299Z,4.2
2022-07-30T02:57:20.874Z,3.9
2022-07-30T03:02:31.416Z,4
2022-07-30T03:07:24.501Z,4
2022-07-30T03:12:27.318Z,4.3
2022-07-30T03:17:29.817Z,4.2
2022-07-30T03:22:34.253Z,4.3
2022-07-30T03:27:36.911Z,4
2022-07-30T03:32:39.620Z,4
2022-07-30T03:37:45.713Z,4.1
2022-07-30T03:42:48.697Z,4.1
2022-07-30T03:47:51.305Z,4.1
2022-07-30T03:52:54.038Z,3.9
2022-07-30T03:57:56.619Z,5.7
2022-07-30T04:02:57.187Z,4
2022-07-30T04:08:00.781Z,3.9
2022-07-30T04:13:10.428Z,3.9
2022-07-30T04:18:13.069Z,4
2022-07-30T04:23:15.871Z,4.1
2022-07-30T04:28:18.361Z,3.9
2022-07-30T04:33:20.749Z,3.8
2022-07-30T04:38:23.467Z,3.9
2022-07-30T04:43:26.036Z,3.5
2022-07-30T04:48:28.311Z,3.6
2022-07-30T04:53:30.746Z,3.7
2022-07-30T04:58:33.513Z,3.6
2022-07-30T05:03:35.912Z,3.7
2022-07-30T05:08:38.712Z,3.7
2022-07-30T05:13:47.067Z,3.4
2022-07-30T05:18:49.695Z,3.5
2022-07-30T05:23:52.431Z,3.8
2022-07-30T05:28:58.045Z,3.7
2022-07-30T05:34:04.017Z,3.6
2022-07-30T05:39:06.899Z,3.7
2022-07-30T05:44:09.556Z,3.6
2022-07-30T05:49:12.187Z,3.4
2022-07-30T05:54:14.965Z,3.7
2022-07-30T05:59:17.578Z,3.6
2022-07-30T06:04:20.204Z,4
2022-07-30T06:09:37.508Z,3.6
2022-07-30T06:14:30.179Z,3.8
2022-07-30T06:19:33.370Z,3.6
2022-07-30T06:24:36.051Z,3.7
2022-07-30T06:29:39.364Z,3.6
2022-07-30T06:34:42.225Z,3.1
2022-07-30T06:39:59.196Z,3.2
2022-07-30T06:44:51.880Z,3.2
2022-07-30T06:49:54.584Z,3.6
2022-07-30T06:54:57.302Z,3.4
2022-07-30T06:59:59.719Z,3.4
2022-07-30T07:05:02.323Z,3.5
2022-07-30T07:10:04.571Z,3.5
2022-07-30T07:15:06.909Z,3.6
2022-07-30T07:20:09.286Z,3.6
2022-07-30T07:25:11.580Z,3.4
2022-07-30T07:30:13.917Z,3.6
2022-07-30T07:35:17.167Z,3.5
2022-07-30T07:40:19.511Z,3.7
2022-07-30T07:45:25.347Z,3.8
2022-07-30T07:50:27.853Z,3.8
2022-07-30T07:55:32.845Z,3.9
2022-07-30T08:00:35.566Z,3.6
2022-07-30T08:06:06.896Z,3.6
2022-07-30T08:10:45.852Z,4
2022-07-30T08:15:48.395Z,4
2022-07-30T08:20:50.944Z,4
2022-07-30T08:25:53.485Z,4.2
2022-07-30T08:31:00.498Z,4
2022-07-30T08:36:10.595Z,4.2
2022-07-30T08:41:13.603Z,3.8
2022-07-30T08:46:16.235Z,4.1
2022-07-30T08:51:19.546Z,3.9
2022-07-30T08:56:22.455Z,4.3
2022-07-30T09:01:26.611Z,4.5
2022-07-30T09:06:29.095Z,4.2
2022-07-30T09:11:32.683Z,4.6
2022-07-30T09:16:35.412Z,4
2022-07-30T09:21:37.791Z,4
2022-07-30T09:26:40.314Z,4.1
2022-07-30T09:31:44.663Z,4
2022-07-30T09:36:47.354Z,4.1
2022-07-30T09:41:49.986Z,3.9
2022-07-30T09:46:55.067Z,3.9
2022-07-30T09:51:58.666Z,3.6
2022-07-30T09:57:02.897Z,3.8
2022-07-30T10:02:11.215Z,3.9
2022-07-30T10:07:26.036Z,3.6
2022-07-30T10:12:18.776Z,3.6
2022-07-30T10:17:26.598Z,521
2022-07-30T10:22:34.438Z,594.5
2022-07-30T10:27:36.726Z,581.4
2022-07-30T10:32:43.282Z,605.2
2022-07-30T10:37:43.739Z,568.3
2022-07-30T10:42:47.869Z,567.1
2022-07-30T10:47:51.038Z,315.9
2022-07-30T10:52:53.904Z,59.3
2022-07-30T10:57:57.514Z,47.7
2022-07-30T11:03:00.897Z,61.6
2022-07-30T11:08:09.452Z,73.2
2022-07-30T11:13:17.273Z,4
2022-07-30T11:14:40.208Z,3.6
2022-07-30T11:19:59.538Z,3.6
2022-07-30T11:24:46.444Z,3.4
2022-07-30T11:29:52.051Z,3.3
2022-07-30T11:34:58.810Z,3.4
2022-07-30T11:40:01.499Z,3.4
2022-07-30T11:45:05.345Z,3.5
2022-07-30T11:50:08.218Z,3.8
2022-07-30T11:55:11.118Z,3.3
2022-07-30T12:00:14.045Z,3.5
2022-07-30T12:05:16.501Z,3.6
2022-07-30T12:10:27.968Z,3.3
2022-07-30T12:15:21.900Z,23.7
2022-07-30T12:20:24.576Z,53.4
2022-07-30T12:25:25.426Z,67.7
2022-07-30T12:30:28.403Z,60.5
2022-07-30T12:35:31.103Z,47.1
2022-07-30T12:40:33.578Z,47.2
2022-07-30T12:45:55.463Z,86.7
2022-07-30T12:50:39.301Z,98.6
2022-07-30T12:55:42.006Z,69.4
2022-07-30T13:00:44.634Z,61.9
2022-07-30T13:05:47.182Z,69.5
2022-07-30T13:10:49.591Z,32.4
2022-07-30T13:15:55.422Z,30.1
2022-07-30T13:20:59.866Z,19.2
2022-07-30T13:26:02.711Z,4.5
2022-07-30T13:31:05.307Z,6.2
2022-07-30T13:36:07.681Z,5.3
2022-07-30T13:41:12.759Z,10.6
2022-07-30T13:46:15.304Z,8.3
2022-07-30T13:51:17.828Z,9.9
2022-07-30T13:56:20.605Z,5.7
2022-07-30T14:01:23.957Z,5.8
2022-07-30T14:06:26.642Z,6.2
2022-07-30T14:11:29.204Z,6.5
2022-07-30T14:16:47.187Z,5.1
2022-07-30T14:21:34.911Z,4.1
2022-07-30T14:26:37.699Z,3.8
2022-07-30T14:31:40.196Z,3.3
2022-07-30T14:36:42.603Z,3.2
2022-07-30T14:41:44.953Z,3.2
2022-07-30T14:47:03.289Z,2.9
2022-07-30T14:51:57.011Z,3.7
2022-07-30T14:57:00.057Z,2.4
2022-07-30T15:02:03.974Z,2
2022-07-30T15:07:12.884Z,2.1
2022-07-30T15:12:27.771Z,2.3
2022-07-30T15:17:21.748Z,2.2
2022-07-30T15:22:24.462Z,2.2
2022-07-30T15:27:34.914Z,2.2
2022-07-30T15:32:29.835Z,2.3
2022-07-30T15:37:32.377Z,2.2
2022-07-30T15:42:34.848Z,2.5
2022-07-30T15:47:37.091Z,2.4
2022-07-30T15:52:39.441Z,2.1
2022-07-30T15:57:41.894Z,1.9
2022-07-30T16:02:44.463Z,1.9
2022-07-30T16:07:47.178Z,1.4
2022-07-30T16:12:49.358Z,1.5
2022-07-30T16:17:51.725Z,1.5
2022-07-30T16:22:54.276Z,1.2
2022-07-30T16:27:57.049Z,1.1
2022-07-30T16:32:59.807Z,1.1
2022-07-30T16:38:02.473Z,1.1
2022-07-30T16:43:04.901Z,0.9
2022-07-30T16:48:07.338Z,0.9
2022-07-30T16:53:14.950Z,0.8
2022-07-30T16:58:17.771Z,0.9
2022-07-30T17:03:22.771Z,0.8
2022-07-30T17:08:26.347Z,0.8
2022-07-30T17:13:31.694Z,0.7
2022-07-30T17:18:34.031Z,0.6
2022-07-30T17:23:36.877Z,0.6
2022-07-30T17:28:39.472Z,0.6
2022-07-30T17:33:42.303Z,0.8
2022-07-30T17:38:44.781Z,0.7
2022-07-30T17:43:47.057Z,0.9
2022-07-30T17:48:49.545Z,3.6
2022-07-30T17:53:52.367Z,1.8
2022-07-30T17:58:54.813Z,1
2022-07-30T18:03:57.402Z,1.2
2022-07-30T18:09:00.203Z,1.1
2022-07-30T18:14:02.791Z,1.2
2022-07-30T18:19:05.295Z,1
2022-07-30T18:24:09.503Z,0.9
2022-07-30T18:29:16.918Z,1.2
2022-07-30T18:34:21.902Z,1.1
2022-07-30T18:39:24.834Z,1.2
2022-07-30T18:44:28.234Z,1.8
2022-07-30T18:49:38.226Z,1.1
2022-07-30T18:54:34.114Z,1.2
2022-07-30T18:59:36.671Z,1.3
2022-07-30T19:04:39.831Z,1.3
2022-07-30T19:09:42.547Z,1.1
2022-07-30T19:14:45.316Z,1.2
2022-07-30T19:19:48.018Z,1.4
2022-07-30T19:24:50.432Z,1.4
2022-07-30T19:29:53.114Z,1.5
2022-07-30T19:34:55.819Z,1.4
2022-07-30T19:40:07.254Z,1.5
2022-07-30T19:45:13.262Z,2.9
2022-07-30T19:50:06.869Z,2.1
2022-07-30T19:55:34.939Z,2.7
2022-07-30T20:00:26.240Z,2.9
2022-07-30T20:05:19.934Z,1.6
2022-07-30T20:10:22.329Z,1.7
2022-07-30T20:15:26.019Z,1.7
2022-07-30T20:20:32.684Z,1.7
2022-07-30T20:25:38.332Z,1.5
2022-07-30T20:30:42.391Z,2.4
2022-07-30T20:35:44.716Z,1.6
2022-07-30T20:40:48.807Z,1.8
2022-07-30T20:45:52.118Z,1.8
2022-07-30T20:50:55.989Z,2
2022-07-30T20:56:00.799Z,2
2022-07-30T21:01:05.975Z,1.8
2022-07-30T21:06:08.886Z,2
2022-07-30T21:11:15.451Z,2
2022-07-30T21:16:20.538Z,2
2022-07-30T21:21:39.190Z,2.1
2022-07-30T21:26:30.677Z,2.7
2022-07-30T21:32:04.262Z,2.1
2022-07-30T21:36:38.815Z,2.1
2022-07-30T21:41:42.531Z,2.3
2022-07-30T21:46:45.029Z,2.3
2022-07-30T21:51:51.797Z,2.4
2022-07-30T21:56:56.272Z,2.5
2022-07-30T23:18:50.941Z,4
2022-07-30T23:23:53.577Z,4.1
2022-07-30T23:28:56.075Z,4.1
2022-07-30T23:33:58.771Z,4
2022-07-30T23:39:02.507Z,4.1
2022-07-30T23:44:05.102Z,4.1
2022-07-30T23:49:08.268Z,4.4
2022-07-30T23:50:22.132Z,4.5
2022-07-30T23:55:24.597Z,4
